sensor_id;sensor_type;location;lat;lon;timestamp;pressure;altitude;pressure_sealevel;temperature;humidity
45467;BME280;31212;49.734;8.490;2023-02-24T00:01:41;100013.72;;;8.23;78.68
45467;BME280;31212;49.734;8.490;2023-02-24T00:04:11;100011.13;;;8.23;78.90
45467;BME280;31212;49.734;8.490;2023-02-24T00:06:40;100022.34;;;8.29;79.07
45467;BME280;31212;49.734;8.490;2023-02-24T00:09:09;100018.00;;;8.24;78.80
45467;BME280;31212;49.734;8.490;2023-02-24T00:11:38;100018.81;;;8.17;79.08
45467;BME280;31212;49.734;8.490;2023-02-24T00:14:05;100020.56;;;8.17;79.26
45467;BME280;31212;49.734;8.490;2023-02-24T00:16:32;100011.91;;;8.15;79.02
45467;BME280;31212;49.734;8.490;2023-02-24T00:18:59;100010.16;;;8.14;79.10
45467;BME280;31212;49.734;8.490;2023-02-24T00:21:28;100008.47;;;8.11;79.30
45467;BME280;31212;49.734;8.490;2023-02-24T00:23:55;100012.75;;;8.09;79.15
45467;BME280;31212;49.734;8.490;2023-02-24T00:26:23;100018.81;;;8.14;79.04
45467;BME280;31212;49.734;8.490;2023-02-24T00:28:50;100014.44;;;8.05;79.49
45467;BME280;31212;49.734;8.490;2023-02-24T00:31:18;100021.31;;;8.03;79.29
45467;BME280;31212;49.734;8.490;2023-02-24T00:33:48;100024.75;;;8.04;79.47
45467;BME280;31212;49.734;8.490;2023-02-24T00:36:16;100018.72;;;8.02;79.41
45467;BME280;31212;49.734;8.490;2023-02-24T00:38:52;100015.28;;;8.03;79.39
45467;BME280;31212;49.734;8.490;2023-02-24T00:41:22;100014.44;;;8.04;79.66
45467;BME280;31212;49.734;8.490;2023-02-24T00:43:50;100015.28;;;8.03;79.74
45467;BME280;31212;49.734;8.490;2023-02-24T00:46:19;100014.41;;;7.99;79.51
45467;BME280;31212;49.734;8.490;2023-02-24T00:48:47;100015.25;;;7.97;79.74
45467;BME280;31212;49.734;8.490;2023-02-24T00:51:16;100024.69;;;7.91;80.23
45467;BME280;31212;49.734;8.490;2023-02-24T00:53:48;100023.78;;;7.88;80.57
45467;BME280;31212;49.734;8.490;2023-02-24T00:56:16;100022.88;;;7.81;80.60
45467;BME280;31212;49.734;8.490;2023-02-24T00:58:43;100039.16;;;7.72;80.52
45467;BME280;31212;49.734;8.490;2023-02-24T01:01:14;100045.09;;;7.61;80.92
45467;BME280;31212;49.734;8.490;2023-02-24T01:03:41;100056.97;;;7.45;81.06
45467;BME280;31212;49.734;8.490;2023-02-24T01:06:09;100064.69;;;7.38;82.03
45467;BME280;31212;49.734;8.490;2023-02-24T01:08:37;100069.75;;;7.31;82.33
45467;BME280;31212;49.734;8.490;2023-02-24T01:11:05;100073.97;;;7.22;82.56
45467;BME280;31212;49.734;8.490;2023-02-24T01:13:50;100083.41;;;7.22;82.16
45467;BME280;31212;49.734;8.490;2023-02-24T01:16:17;100079.09;;;7.19;82.78
45467;BME280;31212;49.734;8.490;2023-02-24T01:18:44;100096.25;;;7.14;83.38
45467;BME280;31212;49.734;8.490;2023-02-24T01:21:12;100098.84;;;7.14;83.62
45467;BME280;31212;49.734;8.490;2023-02-24T01:23:39;100101.41;;;7.13;82.88
45467;BME280;31212;49.734;8.490;2023-02-24T01:26:06;100097.97;;;7.15;82.99
45467;BME280;31212;49.734;8.490;2023-02-24T01:28:32;100104.97;;;7.26;83.13
45467;BME280;31212;49.734;8.490;2023-02-24T01:31:01;100103.22;;;7.21;83.31
45467;BME280;31212;49.734;8.490;2023-02-24T01:33:29;100104.94;;;7.19;83.37
45467;BME280;31212;49.734;8.490;2023-02-24T01:36:07;100097.25;;;7.26;84.00
45467;BME280;31212;49.734;8.490;2023-02-24T01:38:34;100092.84;;;7.18;83.89
45467;BME280;31212;49.734;8.490;2023-02-24T01:41:02;100097.22;;;7.22;83.53
45467;BME280;31212;49.734;8.490;2023-02-24T01:43:30;100100.66;;;7.24;84.37
45467;BME280;31212;49.734;8.490;2023-02-24T01:45:57;100095.50;;;7.24;83.95
45467;BME280;31212;49.734;8.490;2023-02-24T01:48:25;100093.81;;;7.28;83.56
45467;BME280;31212;49.734;8.490;2023-02-24T01:50:54;100090.41;;;7.29;83.44
45467;BME280;31212;49.734;8.490;2023-02-24T01:53:21;100084.41;;;7.33;83.81
45467;BME280;31212;49.734;8.490;2023-02-24T01:55:49;100086.06;;;7.28;83.67
45467;BME280;31212;49.734;8.490;2023-02-24T01:58:19;100081.00;;;7.34;83.58
45467;BME280;31212;49.734;8.490;2023-02-24T02:00:48;100079.38;;;7.46;83.25
45467;BME280;31212;49.734;8.490;2023-02-24T02:03:25;100069.88;;;7.43;83.30
45467;BME280;31212;49.734;8.490;2023-02-24T02:05:59;100068.13;;;7.42;83.08
45467;BME280;31212;49.734;8.490;2023-02-24T02:08:26;100066.38;;;7.39;83.22
45467;BME280;31212;49.734;8.490;2023-02-24T02:10:54;100068.97;;;7.38;83.68
45467;BME280;31212;49.734;8.490;2023-02-24T02:13:24;100071.63;;;7.44;84.23
45467;BME280;31212;49.734;8.490;2023-02-24T02:16:04;100047.53;;;7.45;83.41
45467;BME280;31212;49.734;8.490;2023-02-24T02:18:44;100049.22;;;7.41;83.36
45467;BME280;31212;49.734;8.490;2023-02-24T02:24:47;100028.53;;;7.37;83.68
45467;BME280;31212;49.734;8.490;2023-02-24T02:30:46;100029.38;;;7.39;83.20
45467;BME280;31212;49.734;8.490;2023-02-24T02:33:53;100028.56;;;7.43;83.71
45467;BME280;31212;49.734;8.490;2023-02-24T02:36:36;100022.50;;;7.39;83.43
45467;BME280;31212;49.734;8.490;2023-02-24T02:39:11;100027.66;;;7.39;83.13
45467;BME280;31212;49.734;8.490;2023-02-24T02:41:46;100029.38;;;7.39;82.97
45467;BME280;31212;49.734;8.490;2023-02-24T02:44:18;100025.16;;;7.47;83.68
45467;BME280;31212;49.734;8.490;2023-02-24T02:46:49;100016.59;;;7.51;83.46
45467;BME280;31212;49.734;8.490;2023-02-24T02:49:22;100003.59;;;7.44;82.97
45467;BME280;31212;49.734;8.490;2023-02-24T02:51:52;100007.06;;;7.46;82.81
45467;BME280;31212;49.734;8.490;2023-02-24T02:54:25;100008.84;;;7.51;82.83
45467;BME280;31212;49.734;8.490;2023-02-24T02:56:58;100011.47;;;7.56;83.17
45467;BME280;31212;49.734;8.490;2023-02-24T02:59:28;99997.63;;;7.49;83.02
45467;BME280;31212;49.734;8.490;2023-02-24T03:01:58;100000.25;;;7.54;82.38
45467;BME280;31212;49.734;8.490;2023-02-24T03:04:40;99994.22;;;7.53;82.69
45467;BME280;31212;49.734;8.490;2023-02-24T03:07:09;99983.81;;;7.46;82.87
45467;BME280;31212;49.734;8.490;2023-02-24T03:09:40;99986.34;;;7.39;83.01
45467;BME280;31212;49.734;8.490;2023-02-24T03:12:12;99992.31;;;7.34;83.45
45467;BME280;31212;49.734;8.490;2023-02-24T03:14:43;100014.81;;;7.46;84.01
45467;BME280;31212;49.734;8.490;2023-02-24T03:17:19;100020.88;;;7.49;83.52
45467;BME280;31212;49.734;8.490;2023-02-24T03:19:50;100002.75;;;7.46;83.74
45467;BME280;31212;49.734;8.490;2023-02-24T03:22:29;100005.38;;;7.48;83.54
45467;BME280;31212;49.734;8.490;2023-02-24T03:24:59;99999.34;;;7.49;83.69
45467;BME280;31212;49.734;8.490;2023-02-24T03:27:35;99987.28;;;7.48;83.73
45467;BME280;31212;49.734;8.490;2023-02-24T03:30:12;99986.41;;;7.44;83.31
45467;BME280;31212;49.734;8.490;2023-02-24T03:32:44;99988.13;;;7.45;83.32
45467;BME280;31212;49.734;8.490;2023-02-24T03:35:24;99984.66;;;7.46;83.98
45467;BME280;31212;49.734;8.490;2023-02-24T03:37:53;99977.81;;;7.47;83.15
45467;BME280;31212;49.734;8.490;2023-02-24T03:40:22;99973.47;;;7.41;83.22
45467;BME280;31212;49.734;8.490;2023-02-24T03:43:01;99972.56;;;7.39;83.47
45467;BME280;31212;49.734;8.490;2023-02-24T03:45:31;99972.59;;;7.42;83.41
45467;BME280;31212;49.734;8.490;2023-02-24T03:48:01;99968.31;;;7.44;83.13
45467;BME280;31212;49.734;8.490;2023-02-24T03:50:30;99970.09;;;7.53;82.86
45467;BME280;31212;49.734;8.490;2023-02-24T03:53:22;99952.81;;;7.46;82.81
45467;BME280;31212;49.734;8.490;2023-02-24T03:56:01;99947.56;;;7.35;83.15
45467;BME280;31212;49.734;8.490;2023-02-24T03:58:56;99961.22;;;7.24;83.53
45467;BME280;31212;49.734;8.490;2023-02-24T04:01:33;99967.22;;;7.22;83.82
45467;BME280;31212;49.734;8.490;2023-02-24T04:04:04;99985.34;;;7.25;84.32
45467;BME280;31212;49.734;8.490;2023-02-24T04:06:46;99987.03;;;7.20;83.78
45467;BME280;31212;49.734;8.490;2023-02-24T04:09:22;99987.84;;;7.17;83.87
45467;BME280;31212;49.734;8.490;2023-02-24T04:12:07;99986.97;;;7.15;83.98
45467;BME280;31212;49.734;8.490;2023-02-24T04:14:41;99984.31;;;7.06;84.22
45467;BME280;31212;49.734;8.490;2023-02-24T04:17:12;99985.19;;;7.11;84.21
45467;BME280;31212;49.734;8.490;2023-02-24T04:19:47;99980.91;;;7.09;83.89
45467;BME280;31212;49.734;8.490;2023-02-24T04:22:19;99974.03;;;7.12;84.30
45467;BME280;31212;49.734;8.490;2023-02-24T04:24:50;99961.09;;;7.09;83.86
45467;BME280;31212;49.734;8.490;2023-02-24T04:27:19;99963.69;;;7.09;84.00
45467;BME280;31212;49.734;8.490;2023-02-24T04:29:50;99962.78;;;7.07;83.85
45467;BME280;31212;49.734;8.490;2023-02-24T04:32:20;99954.19;;;7.06;84.28
45467;BME280;31212;49.734;8.490;2023-02-24T04:34:48;99948.19;;;7.06;84.08
45467;BME280;31212;49.734;8.490;2023-02-24T04:37:15;99948.19;;;7.06;84.32
45467;BME280;31212;49.734;8.490;2023-02-24T04:39:43;99935.22;;;7.03;83.97
45467;BME280;31212;49.734;8.490;2023-02-24T04:42:19;99931.78;;;7.02;84.09
45467;BME280;31212;49.734;8.490;2023-02-24T04:44:46;99923.13;;;6.99;83.93
45467;BME280;31212;49.734;8.490;2023-02-24T04:47:13;99928.34;;;7.02;84.32
45467;BME280;31212;49.734;8.490;2023-02-24T04:49:39;99937.75;;;6.98;83.95
45467;BME280;31212;49.734;8.490;2023-02-24T04:52:06;99935.09;;;6.90;84.74
45467;BME280;31212;49.734;8.490;2023-02-24T04:54:34;99938.50;;;6.86;84.80
45467;BME280;31212;49.734;8.490;2023-02-24T04:57:03;99932.44;;;6.83;85.14
45467;BME280;31212;49.734;8.490;2023-02-24T04:59:31;99933.31;;;6.85;84.40
45467;BME280;31212;49.734;8.490;2023-02-24T05:01:57;99928.16;;;6.83;84.83
45467;BME280;31212;49.734;8.490;2023-02-24T05:04:26;99932.47;;;6.86;84.44
45467;BME280;31212;49.734;8.490;2023-02-24T05:06:54;99914.34;;;6.81;85.25
45467;BME280;31212;49.734;8.490;2023-02-24T05:09:22;99912.69;;;6.86;84.37
45467;BME280;31212;49.734;8.490;2023-02-24T05:11:50;99912.69;;;6.85;85.13
45467;BME280;31212;49.734;8.490;2023-02-24T05:14:19;99908.34;;;6.81;85.00
45467;BME280;31212;49.734;8.490;2023-02-24T05:16:48;99909.22;;;6.83;84.48
45467;BME280;31212;49.734;8.490;2023-02-24T05:19:15;99917.84;;;6.86;84.23
45467;BME280;31212;49.734;8.490;2023-02-24T05:22:00;99909.97;;;6.71;85.07
45467;BME280;31212;49.734;8.490;2023-02-24T05:24:28;99906.50;;;6.72;84.93
45467;BME280;31212;49.734;8.490;2023-02-24T05:26:56;99901.44;;;6.77;85.08
45467;BME280;31212;49.734;8.490;2023-02-24T05:29:25;99897.88;;;6.67;84.90
45467;BME280;31212;49.734;8.490;2023-02-24T05:31:53;99895.19;;;6.56;84.94
45467;BME280;31212;49.734;8.490;2023-02-24T05:34:24;99898.59;;;6.53;85.58
45467;BME280;31212;49.734;8.490;2023-02-24T05:36:50;99912.25;;;6.48;85.58
45467;BME280;31212;49.734;8.490;2023-02-24T05:39:18;99932.00;;;6.44;86.15
45467;BME280;31212;49.734;8.490;2023-02-24T05:41:46;99934.56;;;6.41;86.29
45467;BME280;31212;49.734;8.490;2023-02-24T05:44:16;99943.13;;;6.40;86.74
45467;BME280;31212;49.734;8.490;2023-02-24T05:46:49;99940.63;;;6.46;86.53
45467;BME280;31212;49.734;8.490;2023-02-24T05:49:18;99946.66;;;6.47;86.82
45467;BME280;31212;49.734;8.490;2023-02-24T05:51:48;99935.41;;;6.40;86.72
45467;BME280;31212;49.734;8.490;2023-02-24T05:54:19;99942.31;;;6.44;86.92
45467;BME280;31212;49.734;8.490;2023-02-24T05:56:47;99945.84;;;6.52;87.41
45467;BME280;31212;49.734;8.490;2023-02-24T05:59:14;99934.59;;;6.46;87.55
45467;BME280;31212;49.734;8.490;2023-02-24T06:01:43;99931.13;;;6.42;87.08
45467;BME280;31212;49.734;8.490;2023-02-24T06:04:14;99932.94;;;6.49;87.81
45467;BME280;31212;49.734;8.490;2023-02-24T06:06:46;99934.63;;;6.49;87.77
45467;BME280;31212;49.734;8.490;2023-02-24T06:09:17;99927.81;;;6.54;87.83
45467;BME280;31212;49.734;8.490;2023-02-24T06:11:48;99919.25;;;6.56;87.39
45467;BME280;31212;49.734;8.490;2023-02-24T06:14:15;99918.31;;;6.50;87.09
45467;BME280;31212;49.734;8.490;2023-02-24T06:16:41;99911.34;;;6.41;87.33
45467;BME280;31212;49.734;8.490;2023-02-24T06:19:10;99919.97;;;6.45;87.40
45467;BME280;31212;49.734;8.490;2023-02-24T06:21:40;99918.31;;;6.48;88.00
45467;BME280;31212;49.734;8.490;2023-02-24T06:24:10;99913.97;;;6.44;87.39
45467;BME280;31212;49.734;8.490;2023-02-24T06:26:38;99916.56;;;6.47;87.59
45467;BME280;31212;49.734;8.490;2023-02-24T06:29:10;99917.50;;;6.52;88.19
45467;BME280;31212;49.734;8.490;2023-02-24T06:31:37;99920.06;;;6.51;87.69
45467;BME280;31212;49.734;8.490;2023-02-24T06:34:04;99923.56;;;6.56;88.29
45467;BME280;31212;49.734;8.490;2023-02-24T06:36:30;99908.94;;;6.55;88.14
45467;BME280;31212;49.734;8.490;2023-02-24T06:38:58;99923.50;;;6.54;87.52
45467;BME280;31212;49.734;8.490;2023-02-24T06:41:25;99911.53;;;6.58;88.31
45467;BME280;31212;49.734;8.490;2023-02-24T06:43:53;99918.44;;;6.62;87.93
45467;BME280;31212;49.734;8.490;2023-02-24T06:46:20;99901.28;;;6.63;87.95
45467;BME280;31212;49.734;8.490;2023-02-24T06:48:46;99902.16;;;6.68;87.94
45467;BME280;31212;49.734;8.490;2023-02-24T06:51:15;99900.47;;;6.67;87.61
45467;BME280;31212;49.734;8.490;2023-02-24T06:53:42;99897.84;;;6.65;87.15
45467;BME280;31212;49.734;8.490;2023-02-24T06:56:11;99893.59;;;6.67;87.31
45467;BME280;31212;49.734;8.490;2023-02-24T06:58:40;99892.69;;;6.65;87.01
45467;BME280;31212;49.734;8.490;2023-02-24T07:01:10;99897.94;;;6.71;87.39
45467;BME280;31212;49.734;8.490;2023-02-24T07:03:37;99905.66;;;6.71;88.05
45467;BME280;31212;49.734;8.490;2023-02-24T07:06:12;99908.25;;;6.73;87.15
45467;BME280;31212;49.734;8.490;2023-02-24T07:08:49;99912.66;;;6.83;87.54
45467;BME280;31212;49.734;8.490;2023-02-24T07:11:19;99910.19;;;6.91;87.42
45467;BME280;31212;49.734;8.490;2023-02-24T07:13:46;99899.97;;;7.02;87.02
45467;BME280;31212;49.734;8.490;2023-02-24T07:16:14;99886.19;;;7.04;86.50
45467;BME280;31212;49.734;8.490;2023-02-24T07:18:41;99884.53;;;7.10;86.95
45467;BME280;31212;49.734;8.490;2023-02-24T07:21:09;99879.41;;;7.16;86.57
45467;BME280;31212;49.734;8.490;2023-02-24T07:23:37;99858.75;;;7.14;85.95
45467;BME280;31212;49.734;8.490;2023-02-24T07:26:09;99863.94;;;7.17;86.07
45467;BME280;31212;49.734;8.490;2023-02-24T07:28:39;99876.09;;;7.29;85.74
45467;BME280;31212;49.734;8.490;2023-02-24T07:31:06;99861.50;;;7.36;85.67
45467;BME280;31212;49.734;8.490;2023-02-24T07:33:34;99858.94;;;7.40;85.63
45467;BME280;31212;49.734;8.490;2023-02-24T07:36:02;99860.75;;;7.49;85.88
45467;BME280;31212;49.734;8.490;2023-02-24T07:38:34;99842.69;;;7.54;85.52
45467;BME280;31212;49.734;8.490;2023-02-24T07:41:01;99845.25;;;7.48;84.75
45467;BME280;31212;49.734;8.490;2023-02-24T07:43:27;99836.66;;;7.56;84.64
45467;BME280;31212;49.734;8.490;2023-02-24T07:45:56;99828.09;;;7.61;84.54
45467;BME280;31212;49.734;8.490;2023-02-24T07:48:22;99801.41;;;7.68;83.84
45467;BME280;31212;49.734;8.490;2023-02-24T07:50:49;99792.81;;;7.69;84.11
45467;BME280;31212;49.734;8.490;2023-02-24T07:53:17;99781.69;;;7.78;83.58
45467;BME280;31212;49.734;8.490;2023-02-24T07:55:43;99763.59;;;7.76;83.15
45467;BME280;31212;49.734;8.490;2023-02-24T07:58:10;99742.03;;;7.79;82.19
45467;BME280;31212;49.734;8.490;2023-02-24T08:00:37;99736.91;;;7.89;82.04
45467;BME280;31212;49.734;8.490;2023-02-24T08:03:25;99704.22;;;8.05;81.02
45467;BME280;31212;49.734;8.490;2023-02-24T08:05:55;99651.66;;;7.97;80.00
45467;BME280;31212;49.734;8.490;2023-02-24T08:08:24;99630.97;;;8.09;79.51
45467;BME280;31212;49.734;8.490;2023-02-24T08:10:51;99619.78;;;8.14;79.17
45467;BME280;31212;49.734;8.490;2023-02-24T08:13:28;99606.84;;;8.31;78.91
45467;BME280;31212;49.734;8.490;2023-02-24T08:16:04;99593.91;;;8.32;78.37
45467;BME280;31212;49.734;8.490;2023-02-24T08:18:32;99598.22;;;8.42;78.03
45467;BME280;31212;49.734;8.490;2023-02-24T08:21:02;99570.66;;;8.52;77.65
45467;BME280;31212;49.734;8.490;2023-02-24T08:23:29;99537.81;;;8.71;76.93
45467;BME280;31212;49.734;8.490;2023-02-24T08:26:01;99494.66;;;8.83;75.86
45467;BME280;31212;49.734;8.490;2023-02-24T08:28:27;99487.63;;;9.05;75.38
45467;BME280;31212;49.734;8.490;2023-02-24T08:30:53;99437.50;;;9.18;74.44
45467;BME280;31212;49.734;8.490;2023-02-24T08:33:21;99399.31;;;9.40;73.56
45467;BME280;31212;49.734;8.490;2023-02-24T08:35:51;99314.69;;;9.44;72.08
45467;BME280;31212;49.734;8.490;2023-02-24T08:38:25;99290.44;;;9.50;71.43
45467;BME280;31212;49.734;8.490;2023-02-24T08:40:52;99303.38;;;9.54;71.27
45467;BME280;31212;49.734;8.490;2023-02-24T08:43:26;99278.16;;;9.67;71.28
45467;BME280;31212;49.734;8.490;2023-02-24T08:45:59;99256.63;;;9.64;70.61
45467;BME280;31212;49.734;8.490;2023-02-24T08:48:29;99258.88;;;9.90;70.44
45467;BME280;31212;49.734;8.490;2023-02-24T08:51:07;99215.50;;;10.03;70.07
45467;BME280;31212;49.734;8.490;2023-02-24T08:53:34;99139.50;;;9.99;68.74
45467;BME280;31212;49.734;8.490;2023-02-24T08:56:06;99127.28;;;10.07;68.41
45467;BME280;31212;49.734;8.490;2023-02-24T08:58:37;99129.78;;;10.14;68.10
45467;BME280;31212;49.734;8.490;2023-02-24T09:01:12;99118.97;;;9.85;68.55
45467;BME280;31212;49.734;8.490;2023-02-24T09:03:45;99169.78;;;9.96;68.51
45467;BME280;31212;49.734;8.490;2023-02-24T09:06:17;99148.88;;;10.08;67.65
45467;BME280;31212;49.734;8.490;2023-02-24T09:08:50;99104.91;;;9.99;67.81
45467;BME280;31212;49.734;8.490;2023-02-24T09:11:37;99102.44;;;9.92;67.83
45467;BME280;31212;49.734;8.490;2023-02-24T09:14:08;99114.34;;;10.06;67.85
45467;BME280;31212;49.734;8.490;2023-02-24T09:16:42;99077.91;;;10.12;67.40
45467;BME280;31212;49.734;8.490;2023-02-24T09:19:27;99073.59;;;10.13;66.59
45467;BME280;31212;49.734;8.490;2023-02-24T09:22:25;99093.38;;;10.18;67.17
45467;BME280;31212;49.734;8.490;2023-02-24T09:25:06;99089.13;;;10.14;67.30
45467;BME280;31212;49.734;8.490;2023-02-24T09:27:43;99126.31;;;10.13;67.07
45467;BME280;31212;49.734;8.490;2023-02-24T09:30:12;99178.03;;;10.24;67.69
45467;BME280;31212;49.734;8.490;2023-02-24T09:33:04;99141.72;;;10.22;67.34
45467;BME280;31212;49.734;8.490;2023-02-24T09:35:30;99145.88;;;10.36;67.49
45467;BME280;31212;49.734;8.490;2023-02-24T09:38:02;99118.94;;;10.43;66.59
45467;BME280;31212;49.734;8.490;2023-02-24T09:40:31;99082.66;;;10.41;66.99
45467;BME280;31212;49.734;8.490;2023-02-24T09:43:08;99063.91;;;10.24;66.45
45467;BME280;31212;49.734;8.490;2023-02-24T09:45:46;99069.44;;;10.02;66.79
45467;BME280;31212;49.734;8.490;2023-02-24T09:48:24;99097.00;;;10.09;66.78
45467;BME280;31212;49.734;8.490;2023-02-24T09:50:54;99103.63;;;10.27;67.17
45467;BME280;31212;49.734;8.490;2023-02-24T09:53:31;99081.47;;;10.58;66.53
45467;BME280;31212;49.734;8.490;2023-02-24T09:56:13;99108.31;;;11.04;66.25
45467;BME280;31212;49.734;8.490;2023-02-24T09:58:48;99067.06;;;11.31;65.90
45467;BME280;31212;49.734;8.490;2023-02-24T10:01:37;99013.78;;;11.52;64.34
45467;BME280;31212;49.734;8.490;2023-02-24T10:04:15;98905.13;;;11.66;62.85
45467;BME280;31212;49.734;8.490;2023-02-24T10:06:49;98770.41;;;11.81;61.72
45467;BME280;31212;49.734;8.490;2023-02-24T10:09:21;98744.25;;;11.87;61.03
45467;BME280;31212;49.734;8.490;2023-02-24T10:11:54;98674.50;;;12.30;59.39
45467;BME280;31212;49.734;8.490;2023-02-24T10:14:33;98544.13;;;12.12;57.29
45467;BME280;31212;49.734;8.490;2023-02-24T10:17:13;98602.91;;;12.18;58.08
45467;BME280;31212;49.734;8.490;2023-02-24T10:19:50;98621.00;;;12.48;58.06
45467;BME280;31212;49.734;8.490;2023-02-24T10:22:29;98611.47;;;12.47;57.92
45467;BME280;31212;49.734;8.490;2023-02-24T10:25:17;98611.94;;;12.33;58.18
45467;BME280;31212;49.734;8.490;2023-02-24T10:27:54;98623.06;;;12.38;57.79
45467;BME280;31212;49.734;8.490;2023-02-24T10:30:33;98617.56;;;12.20;58.22
45467;BME280;31212;49.734;8.490;2023-02-24T10:33:16;98528.03;;;12.26;57.09
45467;BME280;31212;49.734;8.490;2023-02-24T10:35:43;98579.31;;;12.22;57.35
45467;BME280;31212;49.734;8.490;2023-02-24T10:38:10;98568.13;;;12.45;56.94
45467;BME280;31212;49.734;8.490;2023-02-24T10:40:45;98543.13;;;12.41;56.69
45467;BME280;31212;49.734;8.490;2023-02-24T10:43:15;98498.09;;;12.63;56.38
45467;BME280;31212;49.734;8.490;2023-02-24T10:45:45;98536.94;;;12.44;56.93
45467;BME280;31212;49.734;8.490;2023-02-24T10:48:19;98544.69;;;12.47;56.58
45467;BME280;31212;49.734;8.490;2023-02-24T10:50:51;98567.72;;;12.58;56.70
45467;BME280;31212;49.734;8.490;2023-02-24T10:53:21;98505.53;;;12.74;56.01
45467;BME280;31212;49.734;8.490;2023-02-24T10:56:02;98565.31;;;13.01;56.64
45467;BME280;31212;49.734;8.490;2023-02-24T10:59:01;98498.88;;;12.90;55.80
45467;BME280;31212;49.734;8.490;2023-02-24T11:02:06;98531.13;;;13.10;55.95
45467;BME280;31212;49.734;8.490;2023-02-24T11:04:51;98487.44;;;13.17;55.31
45467;BME280;31212;49.734;8.490;2023-02-24T11:07:49;98494.72;;;13.54;55.12
45467;BME280;31212;49.734;8.490;2023-02-24T11:10:21;98404.38;;;13.09;54.67
45467;BME280;31212;49.734;8.490;2023-02-24T11:12:59;98380.94;;;13.31;54.06
45467;BME280;31212;49.734;8.490;2023-02-24T11:15:46;98402.56;;;13.55;53.78
45467;BME280;31212;49.734;8.490;2023-02-24T11:18:31;98409.69;;;13.28;53.82
45467;BME280;31212;49.734;8.490;2023-02-24T11:21:00;98470.78;;;13.21;54.27
45467;BME280;31212;49.734;8.490;2023-02-24T11:23:29;98480.19;;;13.03;54.82
45467;BME280;31212;49.734;8.490;2023-02-24T11:26:00;98515.66;;;12.58;55.35
45467;BME280;31212;49.734;8.490;2023-02-24T11:28:47;98598.41;;;12.48;56.56
45467;BME280;31212;49.734;8.490;2023-02-24T11:31:26;98571.47;;;12.49;56.40
45467;BME280;31212;49.734;8.490;2023-02-24T11:34:03;98595.13;;;12.68;56.72
45467;BME280;31212;49.734;8.490;2023-02-24T11:36:38;98563.19;;;12.63;56.17
45467;BME280;31212;49.734;8.490;2023-02-24T11:42:14;98579.38;;;12.21;56.83
45467;BME280;31212;49.734;8.490;2023-02-24T11:44:48;98626.69;;;12.05;57.90
45467;BME280;31212;49.734;8.490;2023-02-24T11:47:19;98626.66;;;12.07;57.99
45467;BME280;31212;49.734;8.490;2023-02-24T11:49:49;98612.44;;;12.17;57.69
45467;BME280;31212;49.734;8.490;2023-02-24T11:52:19;98596.44;;;12.03;57.51
45467;BME280;31212;49.734;8.490;2023-02-24T11:54:53;98568.06;;;11.95;56.92
45467;BME280;31212;49.734;8.490;2023-02-24T11:57:27;98599.97;;;11.72;58.24
45467;BME280;31212;49.734;8.490;2023-02-24T12:00:05;98634.81;;;11.65;58.95
45467;BME280;31212;49.734;8.490;2023-02-24T12:02:43;98638.25;;;11.67;59.02
45467;BME280;31212;49.734;8.490;2023-02-24T12:05:14;98647.03;;;11.63;58.58
45467;BME280;31212;49.734;8.490;2023-02-24T12:07:44;98636.75;;;11.58;59.00
45467;BME280;31212;49.734;8.490;2023-02-24T12:10:17;98621.97;;;11.88;57.87
45467;BME280;31212;49.734;8.490;2023-02-24T12:12:48;98628.94;;;11.88;58.75
45467;BME280;31212;49.734;8.490;2023-02-24T12:15:22;98591.78;;;12.13;58.03
45467;BME280;31212;49.734;8.490;2023-02-24T12:17:53;98535.94;;;12.48;56.50
45467;BME280;31212;49.734;8.490;2023-02-24T12:20:27;98493.00;;;13.07;55.82
45467;BME280;31212;49.734;8.490;2023-02-24T12:22:57;98442.50;;;13.34;54.75
45467;BME280;31212;49.734;8.490;2023-02-24T12:25:29;98404.84;;;13.63;54.10
45467;BME280;31212;49.734;8.490;2023-02-24T12:28:06;98336.34;;;13.39;53.63
45467;BME280;31212;49.734;8.490;2023-02-24T12:30:53;98279.53;;;13.47;52.96
45467;BME280;31212;49.734;8.490;2023-02-24T12:33:34;98253.31;;;13.50;52.38
45467;BME280;31212;49.734;8.490;2023-02-24T12:36:13;98165.31;;;13.36;51.52
45467;BME280;31212;49.734;8.490;2023-02-24T12:38:53;98235.00;;;13.10;52.71
45467;BME280;31212;49.734;8.490;2023-02-24T12:41:34;98273.59;;;13.01;53.17
45467;BME280;31212;49.734;8.490;2023-02-24T12:44:15;98142.44;;;12.60;52.13
45467;BME280;31212;49.734;8.490;2023-02-24T12:46:50;98091.97;;;12.01;51.93
45467;BME280;31212;49.734;8.490;2023-02-24T12:49:34;98113.09;;;11.92;52.20
45467;BME280;31212;49.734;8.490;2023-02-24T12:52:12;98157.41;;;11.89;52.59
45467;BME280;31212;49.734;8.490;2023-02-24T12:54:45;98145.91;;;12.18;52.50
45467;BME280;31212;49.734;8.490;2023-02-24T12:57:21;98124.41;;;12.35;52.02
45467;BME280;31212;49.734;8.490;2023-02-24T12:59:51;98146.38;;;12.91;51.60
45467;BME280;31212;49.734;8.490;2023-02-24T13:02:28;98107.44;;;13.49;50.54
45467;BME280;31212;49.734;8.490;2023-02-24T13:05:02;97945.41;;;13.20;48.98
45467;BME280;31212;49.734;8.490;2023-02-24T13:07:49;97915.16;;;12.79;49.23
45467;BME280;31212;49.734;8.490;2023-02-24T13:10:28;97880.69;;;12.74;48.64
45467;BME280;31212;49.734;8.490;2023-02-24T13:13:06;97880.41;;;12.80;48.33
45467;BME280;31212;49.734;8.490;2023-02-24T13:15:35;97971.72;;;12.56;49.80
45467;BME280;31212;49.734;8.490;2023-02-24T13:18:04;98051.56;;;12.35;50.86
45467;BME280;31212;49.734;8.490;2023-02-24T13:20:33;98145.56;;;12.48;52.03
45467;BME280;31212;49.734;8.490;2023-02-24T13:23:02;98165.38;;;12.73;51.64
45467;BME280;31212;49.734;8.490;2023-02-24T13:25:31;98135.56;;;12.80;51.68
45467;BME280;31212;49.734;8.490;2023-02-24T13:28:01;98119.28;;;13.16;50.99
45467;BME280;31212;49.734;8.490;2023-02-24T13:30:34;98084.19;;;13.23;50.67
45467;BME280;31212;49.734;8.490;2023-02-24T13:33:18;98023.63;;;13.18;49.91
45467;BME280;31212;49.734;8.490;2023-02-24T13:35:47;97997.81;;;12.94;49.73
45467;BME280;31212;49.734;8.490;2023-02-24T13:38:35;98061.63;;;12.84;50.71
45467;BME280;31212;49.734;8.490;2023-02-24T13:41:34;98058.25;;;12.61;51.24
45467;BME280;31212;49.734;8.490;2023-02-24T13:44:03;98094.97;;;12.55;51.22